sensor_id;sensor_type;location;lat;lon;timestamp;P1;durP1;ratioP1;P2;durP2;ratioP2
9138;SDS011;4604;48.616;9.548;2023-04-03T00:01:19;5.47;;;3.83;;
9138;SDS011;4604;48.616;9.548;2023-04-03T00:03:46;5.10;;;3.77;;
9138;SDS011;4604;48.616;9.548;2023-04-03T00:06:13;4.90;;;3.97;;
9138;SDS011;4604;48.616;9.548;2023-04-03T00:08:40;4.47;;;3.53;;
9138;SDS011;4604;48.616;9.548;2023-04-03T00:11:07;5.60;;;4.00;;
9138;SDS011;4604;48.616;9.548;2023-04-03T00:13:34;5.93;;;4.17;;
9138;SDS011;4604;48.616;9.548;2023-04-03T00:16:03;5.27;;;3.90;;
9138;SDS011;4604;48.616;9.548;2023-04-03T00:18:30;5.57;;;3.93;;
9138;SDS011;4604;48.616;9.548;2023-04-03T00:20:57;4.73;;;3.63;;
9138;SDS011;4604;48.616;9.548;2023-04-03T00:23:24;6.63;;;4.00;;
9138;SDS011;4604;48.616;9.548;2023-04-03T00:25:50;5.07;;;3.90;;
9138;SDS011;4604;48.616;9.548;2023-04-03T00:28:17;7.47;;;4.47;;
9138;SDS011;4604;48.616;9.548;2023-04-03T00:30:44;5.00;;;3.83;;
9138;SDS011;4604;48.616;9.548;2023-04-03T00:33:12;5.70;;;4.20;;
9138;SDS011;4604;48.616;9.548;2023-04-03T00:35:42;5.60;;;4.27;;
9138;SDS011;4604;48.616;9.548;2023-04-03T00:38:09;5.73;;;4.10;;
9138;SDS011;4604;48.616;9.548;2023-04-03T00:40:41;5.73;;;4.20;;
9138;SDS011;4604;48.616;9.548;2023-04-03T00:43:10;7.10;;;3.90;;
9138;SDS011;4604;48.616;9.548;2023-04-03T00:45:39;5.47;;;4.13;;
9138;SDS011;4604;48.616;9.548;2023-04-03T00:48:08;6.87;;;4.47;;
9138;SDS011;4604;48.616;9.548;2023-04-03T00:50:39;6.27;;;3.80;;
9138;SDS011;4604;48.616;9.548;2023-04-03T00:53:09;8.40;;;4.20;;
9138;SDS011;4604;48.616;9.548;2023-04-03T00:55:39;5.77;;;4.33;;
9138;SDS011;4604;48.616;9.548;2023-04-03T00:58:07;5.47;;;4.10;;
9138;SDS011;4604;48.616;9.548;2023-04-03T01:00:35;6.23;;;4.10;;
9138;SDS011;4604;48.616;9.548;2023-04-03T01:03:06;4.97;;;3.93;;
9138;SDS011;4604;48.616;9.548;2023-04-03T01:05:33;5.37;;;4.20;;
9138;SDS011;4604;48.616;9.548;2023-04-03T01:08:01;5.60;;;3.87;;
9138;SDS011;4604;48.616;9.548;2023-04-03T01:10:28;7.00;;;3.60;;
9138;SDS011;4604;48.616;9.548;2023-04-03T01:12:54;4.83;;;3.80;;
9138;SDS011;4604;48.616;9.548;2023-04-03T01:15:22;4.77;;;3.73;;
9138;SDS011;4604;48.616;9.548;2023-04-03T01:17:52;5.13;;;3.80;;
9138;SDS011;4604;48.616;9.548;2023-04-03T01:23:46;7.07;;;4.10;;
9138;SDS011;4604;48.616;9.548;2023-04-03T01:26:20;5.00;;;3.70;;
9138;SDS011;4604;48.616;9.548;2023-04-03T01:28:47;5.93;;;4.27;;
9138;SDS011;4604;48.616;9.548;2023-04-03T01:31:15;7.77;;;4.47;;
9138;SDS011;4604;48.616;9.548;2023-04-03T01:33:50;6.97;;;4.23;;
9138;SDS011;4604;48.616;9.548;2023-04-03T01:36:18;7.00;;;4.10;;
9138;SDS011;4604;48.616;9.548;2023-04-03T01:38:47;5.90;;;4.07;;
9138;SDS011;4604;48.616;9.548;2023-04-03T01:41:14;8.23;;;4.40;;
9138;SDS011;4604;48.616;9.548;2023-04-03T01:43:41;5.63;;;3.70;;
9138;SDS011;4604;48.616;9.548;2023-04-03T01:46:08;5.07;;;3.97;;
9138;SDS011;4604;48.616;9.548;2023-04-03T01:48:35;4.73;;;3.73;;
9138;SDS011;4604;48.616;9.548;2023-04-03T01:51:03;5.20;;;3.80;;
9138;SDS011;4604;48.616;9.548;2023-04-03T01:53:30;5.40;;;3.90;;
9138;SDS011;4604;48.616;9.548;2023-04-03T01:55:56;6.20;;;4.10;;
9138;SDS011;4604;48.616;9.548;2023-04-03T01:58:23;5.67;;;4.00;;
9138;SDS011;4604;48.616;9.548;2023-04-03T02:00:50;5.07;;;4.20;;
9138;SDS011;4604;48.616;9.548;2023-04-03T02:03:17;4.97;;;3.63;;
9138;SDS011;4604;48.616;9.548;2023-04-03T02:05:44;5.57;;;4.03;;
9138;SDS011;4604;48.616;9.548;2023-04-03T02:08:12;5.90;;;4.07;;
9138;SDS011;4604;48.616;9.548;2023-04-03T02:10:39;6.67;;;3.87;;
9138;SDS011;4604;48.616;9.548;2023-04-03T02:13:06;5.20;;;3.93;;
9138;SDS011;4604;48.616;9.548;2023-04-03T02:15:32;5.53;;;4.20;;
9138;SDS011;4604;48.616;9.548;2023-04-03T02:17:59;4.97;;;4.07;;
9138;SDS011;4604;48.616;9.548;2023-04-03T02:20:26;8.10;;;4.10;;
9138;SDS011;4604;48.616;9.548;2023-04-03T02:22:52;7.10;;;4.10;;
9138;SDS011;4604;48.616;9.548;2023-04-03T02:25:21;5.97;;;3.60;;
9138;SDS011;4604;48.616;9.548;2023-04-03T02:27:47;5.10;;;3.83;;
9138;SDS011;4604;48.616;9.548;2023-04-03T02:30:14;6.70;;;4.47;;
9138;SDS011;4604;48.616;9.548;2023-04-03T02:32:41;5.60;;;4.13;;
9138;SDS011;4604;48.616;9.548;2023-04-03T02:35:08;7.00;;;4.30;;
9138;SDS011;4604;48.616;9.548;2023-04-03T02:37:35;5.23;;;3.97;;
9138;SDS011;4604;48.616;9.548;2023-04-03T02:40:03;5.27;;;4.07;;
9138;SDS011;4604;48.616;9.548;2023-04-03T02:42:32;5.77;;;4.27;;
9138;SDS011;4604;48.616;9.548;2023-04-03T02:44:59;4.43;;;3.60;;
9138;SDS011;4604;48.616;9.548;2023-04-03T02:47:26;6.50;;;4.00;;
9138;SDS011;4604;48.616;9.548;2023-04-03T02:49:53;6.53;;;4.20;;
9138;SDS011;4604;48.616;9.548;2023-04-03T02:52:20;5.17;;;3.87;;
9138;SDS011;4604;48.616;9.548;2023-04-03T02:54:49;6.00;;;4.43;;
9138;SDS011;4604;48.616;9.548;2023-04-03T02:57:15;6.83;;;4.23;;
9138;SDS011;4604;48.616;9.548;2023-04-03T02:59:43;4.97;;;3.63;;
9138;SDS011;4604;48.616;9.548;2023-04-03T03:02:10;5.83;;;3.60;;
9138;SDS011;4604;48.616;9.548;2023-04-03T03:04:37;5.10;;;3.37;;
9138;SDS011;4604;48.616;9.548;2023-04-03T03:07:04;5.67;;;3.57;;
9138;SDS011;4604;48.616;9.548;2023-04-03T03:09:31;5.20;;;3.50;;
9138;SDS011;4604;48.616;9.548;2023-04-03T03:11:58;5.50;;;3.97;;
9138;SDS011;4604;48.616;9.548;2023-04-03T03:14:25;5.77;;;3.87;;
9138;SDS011;4604;48.616;9.548;2023-04-03T03:16:53;5.53;;;3.83;;
9138;SDS011;4604;48.616;9.548;2023-04-03T03:19:19;6.33;;;3.90;;
9138;SDS011;4604;48.616;9.548;2023-04-03T03:21:46;5.70;;;4.10;;
9138;SDS011;4604;48.616;9.548;2023-04-03T03:24:13;4.80;;;3.77;;
9138;SDS011;4604;48.616;9.548;2023-04-03T03:26:40;7.17;;;3.80;;
9138;SDS011;4604;48.616;9.548;2023-04-03T03:29:07;6.90;;;4.10;;
9138;SDS011;4604;48.616;9.548;2023-04-03T03:31:34;5.40;;;3.43;;
9138;SDS011;4604;48.616;9.548;2023-04-03T03:34:02;6.00;;;4.13;;
9138;SDS011;4604;48.616;9.548;2023-04-03T03:36:29;5.57;;;4.07;;
9138;SDS011;4604;48.616;9.548;2023-04-03T03:38:56;5.83;;;4.17;;
9138;SDS011;4604;48.616;9.548;2023-04-03T03:41:23;7.20;;;4.10;;
9138;SDS011;4604;48.616;9.548;2023-04-03T03:43:50;5.80;;;3.93;;
9138;SDS011;4604;48.616;9.548;2023-04-03T03:46:16;4.60;;;3.70;;
9138;SDS011;4604;48.616;9.548;2023-04-03T03:48:43;5.43;;;3.80;;
9138;SDS011;4604;48.616;9.548;2023-04-03T03:51:11;4.87;;;3.50;;
9138;SDS011;4604;48.616;9.548;2023-04-03T03:53:38;5.00;;;3.80;;
9138;SDS011;4604;48.616;9.548;2023-04-03T03:56:05;7.70;;;3.53;;
9138;SDS011;4604;48.616;9.548;2023-04-03T03:58:32;4.60;;;3.47;;
9138;SDS011;4604;48.616;9.548;2023-04-03T04:01:00;5.07;;;4.00;;
9138;SDS011;4604;48.616;9.548;2023-04-03T04:03:27;4.80;;;3.63;;
9138;SDS011;4604;48.616;9.548;2023-04-03T04:05:54;4.67;;;3.53;;
9138;SDS011;4604;48.616;9.548;2023-04-03T04:08:22;7.00;;;3.63;;
9138;SDS011;4604;48.616;9.548;2023-04-03T04:10:48;5.00;;;3.60;;
9138;SDS011;4604;48.616;9.548;2023-04-03T04:13:15;5.00;;;3.43;;
9138;SDS011;4604;48.616;9.548;2023-04-03T04:15:42;5.20;;;3.83;;
9138;SDS011;4604;48.616;9.548;2023-04-03T04:18:09;5.50;;;3.77;;
9138;SDS011;4604;48.616;9.548;2023-04-03T04:20:36;6.10;;;3.50;;
9138;SDS011;4604;48.616;9.548;2023-04-03T04:23:06;4.40;;;3.63;;
9138;SDS011;4604;48.616;9.548;2023-04-03T04:25:34;6.00;;;4.33;;
9138;SDS011;4604;48.616;9.548;2023-04-03T04:28:00;4.63;;;3.23;;
9138;SDS011;4604;48.616;9.548;2023-04-03T04:30:29;4.77;;;3.20;;
9138;SDS011;4604;48.616;9.548;2023-04-03T04:32:56;4.83;;;3.03;;
9138;SDS011;4604;48.616;9.548;2023-04-03T04:35:22;4.90;;;3.30;;
9138;SDS011;4604;48.616;9.548;2023-04-03T04:37:49;4.27;;;3.30;;
9138;SDS011;4604;48.616;9.548;2023-04-03T04:40:16;5.40;;;3.27;;
9138;SDS011;4604;48.616;9.548;2023-04-03T04:42:44;4.27;;;3.20;;
9138;SDS011;4604;48.616;9.548;2023-04-03T04:45:11;5.73;;;3.33;;
9138;SDS011;4604;48.616;9.548;2023-04-03T04:47:37;4.87;;;2.97;;
9138;SDS011;4604;48.616;9.548;2023-04-03T04:50:05;4.17;;;3.30;;
9138;SDS011;4604;48.616;9.548;2023-04-03T04:52:32;3.00;;;2.70;;
9138;SDS011;4604;48.616;9.548;2023-04-03T04:54:59;4.47;;;3.50;;
9138;SDS011;4604;48.616;9.548;2023-04-03T04:57:26;5.27;;;3.20;;
9138;SDS011;4604;48.616;9.548;2023-04-03T04:59:54;4.97;;;3.63;;
9138;SDS011;4604;48.616;9.548;2023-04-03T05:02:20;4.63;;;3.60;;
9138;SDS011;4604;48.616;9.548;2023-04-03T05:04:47;4.23;;;3.40;;
9138;SDS011;4604;48.616;9.548;2023-04-03T05:07:15;4.60;;;3.53;;
9138;SDS011;4604;48.616;9.548;2023-04-03T05:09:41;6.07;;;3.50;;
9138;SDS011;4604;48.616;9.548;2023-04-03T05:12:08;5.80;;;3.40;;
9138;SDS011;4604;48.616;9.548;2023-04-03T05:14:35;4.97;;;3.47;;
9138;SDS011;4604;48.616;9.548;2023-04-03T05:17:03;5.03;;;3.40;;
9138;SDS011;4604;48.616;9.548;2023-04-03T05:19:30;3.93;;;3.23;;
9138;SDS011;4604;48.616;9.548;2023-04-03T05:21:56;5.00;;;3.30;;
9138;SDS011;4604;48.616;9.548;2023-04-03T05:24:23;3.73;;;3.30;;
9138;SDS011;4604;48.616;9.548;2023-04-03T05:26:51;3.40;;;3.00;;
9138;SDS011;4604;48.616;9.548;2023-04-03T05:29:17;5.10;;;3.40;;
9138;SDS011;4604;48.616;9.548;2023-04-03T05:31:44;6.10;;;3.10;;
9138;SDS011;4604;48.616;9.548;2023-04-03T05:34:12;6.47;;;3.17;;
9138;SDS011;4604;48.616;9.548;2023-04-03T05:36:39;5.93;;;3.40;;
9138;SDS011;4604;48.616;9.548;2023-04-03T05:39:06;3.40;;;2.80;;
9138;SDS011;4604;48.616;9.548;2023-04-03T05:41:33;4.13;;;3.03;;
9138;SDS011;4604;48.616;9.548;2023-04-03T05:44:00;5.47;;;3.20;;
9138;SDS011;4604;48.616;9.548;2023-04-03T05:46:27;4.60;;;3.20;;
9138;SDS011;4604;48.616;9.548;2023-04-03T05:48:53;4.47;;;3.23;;
9138;SDS011;4604;48.616;9.548;2023-04-03T05:51:24;4.03;;;3.47;;
9138;SDS011;4604;48.616;9.548;2023-04-03T05:53:56;4.40;;;3.07;;
9138;SDS011;4604;48.616;9.548;2023-04-03T05:56:27;4.47;;;3.30;;
9138;SDS011;4604;48.616;9.548;2023-04-03T05:58:53;4.50;;;3.50;;
9138;SDS011;4604;48.616;9.548;2023-04-03T06:01:20;4.70;;;3.00;;
9138;SDS011;4604;48.616;9.548;2023-04-03T06:03:47;4.23;;;2.93;;
9138;SDS011;4604;48.616;9.548;2023-04-03T06:06:16;7.00;;;3.30;;
9138;SDS011;4604;48.616;9.548;2023-04-03T06:08:44;6.60;;;2.73;;
9138;SDS011;4604;48.616;9.548;2023-04-03T06:11:13;7.40;;;3.40;;
9138;SDS011;4604;48.616;9.548;2023-04-03T06:13:40;6.20;;;3.10;;
9138;SDS011;4604;48.616;9.548;2023-04-03T06:16:08;3.47;;;2.87;;
9138;SDS011;4604;48.616;9.548;2023-04-03T06:18:39;4.27;;;3.33;;
9138;SDS011;4604;48.616;9.548;2023-04-03T06:21:06;3.77;;;2.93;;
9138;SDS011;4604;48.616;9.548;2023-04-03T06:23:33;4.60;;;3.10;;
9138;SDS011;4604;48.616;9.548;2023-04-03T06:26:01;3.20;;;2.63;;
9138;SDS011;4604;48.616;9.548;2023-04-03T06:28:28;5.30;;;3.30;;
9138;SDS011;4604;48.616;9.548;2023-04-03T06:30:56;4.37;;;2.80;;
9138;SDS011;4604;48.616;9.548;2023-04-03T06:33:23;5.40;;;3.27;;
9138;SDS011;4604;48.616;9.548;2023-04-03T06:35:55;3.77;;;3.10;;
9138;SDS011;4604;48.616;9.548;2023-04-03T06:38:22;5.47;;;3.10;;
9138;SDS011;4604;48.616;9.548;2023-04-03T06:40:49;3.63;;;3.03;;
9138;SDS011;4604;48.616;9.548;2023-04-03T06:43:18;4.30;;;3.30;;
9138;SDS011;4604;48.616;9.548;2023-04-03T06:45:44;4.57;;;3.30;;
9138;SDS011;4604;48.616;9.548;2023-04-03T06:48:12;4.83;;;2.87;;
9138;SDS011;4604;48.616;9.548;2023-04-03T06:50:39;6.70;;;3.10;;
9138;SDS011;4604;48.616;9.548;2023-04-03T06:53:06;4.20;;;3.07;;
9138;SDS011;4604;48.616;9.548;2023-04-03T06:55:33;4.27;;;3.20;;
9138;SDS011;4604;48.616;9.548;2023-04-03T06:57:59;6.40;;;3.17;;
9138;SDS011;4604;48.616;9.548;2023-04-03T07:00:28;6.37;;;2.93;;
9138;SDS011;4604;48.616;9.548;2023-04-03T07:02:58;4.07;;;3.17;;
9138;SDS011;4604;48.616;9.548;2023-04-03T07:05:25;3.13;;;2.80;;
9138;SDS011;4604;48.616;9.548;2023-04-03T07:07:52;5.03;;;3.20;;
9138;SDS011;4604;48.616;9.548;2023-04-03T07:10:19;4.20;;;3.23;;
9138;SDS011;4604;48.616;9.548;2023-04-03T07:12:46;5.00;;;3.30;;
9138;SDS011;4604;48.616;9.548;2023-04-03T07:15:13;4.43;;;3.47;;
9138;SDS011;4604;48.616;9.548;2023-04-03T07:17:41;3.93;;;3.00;;
9138;SDS011;4604;48.616;9.548;2023-04-03T07:20:09;4.00;;;2.90;;
9138;SDS011;4604;48.616;9.548;2023-04-03T07:22:36;3.43;;;2.87;;
9138;SDS011;4604;48.616;9.548;2023-04-03T07:25:03;4.30;;;3.30;;
9138;SDS011;4604;48.616;9.548;2023-04-03T07:27:32;4.13;;;3.07;;
9138;SDS011;4604;48.616;9.548;2023-04-03T07:29:59;4.50;;;3.27;;
9138;SDS011;4604;48.616;9.548;2023-04-03T07:32:26;5.50;;;3.30;;
9138;SDS011;4604;48.616;9.548;2023-04-03T07:34:54;3.33;;;2.70;;
9138;SDS011;4604;48.616;9.548;2023-04-03T07:37:20;4.30;;;2.87;;
9138;SDS011;4604;48.616;9.548;2023-04-03T07:39:47;3.97;;;3.10;;
9138;SDS011;4604;48.616;9.548;2023-04-03T07:42:14;3.80;;;3.13;;
9138;SDS011;4604;48.616;9.548;2023-04-03T07:44:41;3.67;;;2.87;;
9138;SDS011;4604;48.616;9.548;2023-04-03T07:47:08;3.27;;;2.80;;
9138;SDS011;4604;48.616;9.548;2023-04-03T07:49:35;4.47;;;3.10;;
9138;SDS011;4604;48.616;9.548;2023-04-03T07:52:09;4.50;;;3.17;;
9138;SDS011;4604;48.616;9.548;2023-04-03T07:54:36;4.30;;;3.10;;
9138;SDS011;4604;48.616;9.548;2023-04-03T07:57:03;7.30;;;3.10;;
9138;SDS011;4604;48.616;9.548;2023-04-03T07:59:30;4.23;;;3.20;;
9138;SDS011;4604;48.616;9.548;2023-04-03T08:01:57;4.10;;;2.80;;
9138;SDS011;4604;48.616;9.548;2023-04-03T08:04:23;3.93;;;3.13;;
9138;SDS011;4604;48.616;9.548;2023-04-03T08:06:51;5.10;;;2.83;;
9138;SDS011;4604;48.616;9.548;2023-04-03T08:09:19;3.20;;;2.37;;
9138;SDS011;4604;48.616;9.548;2023-04-03T08:11:45;4.90;;;3.23;;
9138;SDS011;4604;48.616;9.548;2023-04-03T08:14:12;3.90;;;3.13;;
9138;SDS011;4604;48.616;9.548;2023-04-03T08:16:43;3.90;;;3.10;;
9138;SDS011;4604;48.616;9.548;2023-04-03T08:19:11;4.70;;;3.30;;
9138;SDS011;4604;48.616;9.548;2023-04-03T08:21:40;3.40;;;2.90;;
9138;SDS011;4604;48.616;9.548;2023-04-03T08:24:07;5.37;;;3.00;;
9138;SDS011;4604;48.616;9.548;2023-04-03T08:26:36;3.73;;;3.17;;
9138;SDS011;4604;48.616;9.548;2023-04-03T08:29:03;3.87;;;2.93;;
9138;SDS011;4604;48.616;9.548;2023-04-03T08:31:29;3.80;;;3.00;;
9138;SDS011;4604;48.616;9.548;2023-04-03T08:33:56;3.80;;;2.83;;
9138;SDS011;4604;48.616;9.548;2023-04-03T08:36:24;4.10;;;3.00;;
9138;SDS011;4604;48.616;9.548;2023-04-03T08:38:53;4.50;;;3.30;;
9138;SDS011;4604;48.616;9.548;2023-04-03T08:41:24;5.80;;;3.10;;
9138;SDS011;4604;48.616;9.548;2023-04-03T08:44:02;5.37;;;3.30;;
9138;SDS011;4604;48.616;9.548;2023-04-03T08:46:42;6.73;;;3.43;;
9138;SDS011;4604;48.616;9.548;2023-04-03T08:49:23;3.90;;;3.20;;
9138;SDS011;4604;48.616;9.548;2023-04-03T08:51:53;3.43;;;3.13;;
9138;SDS011;4604;48.616;9.548;2023-04-03T08:54:23;3.50;;;3.20;;
9138;SDS011;4604;48.616;9.548;2023-04-03T08:56:55;6.27;;;3.33;;
9138;SDS011;4604;48.616;9.548;2023-04-03T08:59:26;4.90;;;3.27;;
9138;SDS011;4604;48.616;9.548;2023-04-03T09:01:56;4.43;;;3.60;;
9138;SDS011;4604;48.616;9.548;2023-04-03T09:04:25;4.07;;;3.30;;
9138;SDS011;4604;48.616;9.548;2023-04-03T09:06:58;4.60;;;3.50;;
9138;SDS011;4604;48.616;9.548;2023-04-03T09:09:32;5.47;;;3.43;;
9138;SDS011;4604;48.616;9.548;2023-04-03T09:12:04;5.73;;;3.60;;
9138;SDS011;4604;48.616;9.548;2023-04-03T09:14:41;4.83;;;3.50;;
9138;SDS011;4604;48.616;9.548;2023-04-03T09:17:14;4.80;;;3.37;;
9138;SDS011;4604;48.616;9.548;2023-04-03T09:19:58;6.57;;;3.60;;
9138;SDS011;4604;48.616;9.548;2023-04-03T09:22:34;5.07;;;3.50;;
9138;SDS011;4604;48.616;9.548;2023-04-03T09:25:09;4.90;;;3.10;;
9138;SDS011;4604;48.616;9.548;2023-04-03T09:27:39;4.67;;;3.27;;
9138;SDS011;4604;48.616;9.548;2023-04-03T09:30:11;4.30;;;3.20;;
9138;SDS011;4604;48.616;9.548;2023-04-03T09:32:40;4.87;;;3.63;;
9138;SDS011;4604;48.616;9.548;2023-04-03T09:35:15;5.70;;;3.20;;
9138;SDS011;4604;48.616;9.548;2023-04-03T09:37:47;8.83;;;3.73;;
9138;SDS011;4604;48.616;9.548;2023-04-03T09:40:32;4.23;;;3.13;;
9138;SDS011;4604;48.616;9.548;2023-04-03T09:43:19;4.33;;;3.17;;
9138;SDS011;4604;48.616;9.548;2023-04-03T09:45:50;5.03;;;3.10;;
9138;SDS011;4604;48.616;9.548;2023-04-03T09:48:19;4.23;;;3.17;;
9138;SDS011;4604;48.616;9.548;2023-04-03T09:50:58;3.87;;;3.10;;
9138;SDS011;4604;48.616;9.548;2023-04-03T09:53:28;4.13;;;3.47;;
9138;SDS011;4604;48.616;9.548;2023-04-03T09:55:57;5.33;;;3.33;;
9138;SDS011;4604;48.616;9.548;2023-04-03T09:58:26;3.77;;;3.27;;
9138;SDS011;4604;48.616;9.548;2023-04-03T10:00:56;5.03;;;3.10;;
9138;SDS011;4604;48.616;9.548;2023-04-03T10:03:27;6.13;;;3.60;;
9138;SDS011;4604;48.616;9.548;2023-04-03T10:05:57;7.20;;;3.70;;
9138;SDS011;4604;48.616;9.548;2023-04-03T10:08:25;4.93;;;3.27;;
9138;SDS011;4604;48.616;9.548;2023-04-03T10:11:07;3.83;;;3.30;;
9138;SDS011;4604;48.616;9.548;2023-04-03T10:13:54;3.70;;;3.10;;
9138;SDS011;4604;48.616;9.548;2023-04-03T10:16:27;3.67;;;2.83;;
9138;SDS011;4604;48.616;9.548;2023-04-03T10:19:09;6.43;;;2.70;;
9138;SDS011;4604;48.616;9.548;2023-04-03T10:21:50;3.87;;;2.77;;
9138;SDS011;4604;48.616;9.548;2023-04-03T10:24:24;3.23;;;2.80;;
9138;SDS011;4604;48.616;9.548;2023-04-03T10:26:59;5.33;;;2.97;;
9138;SDS011;4604;48.616;9.548;2023-04-03T10:29:34;3.87;;;2.97;;
9138;SDS011;4604;48.616;9.548;2023-04-03T10:32:23;6.70;;;3.03;;
9138;SDS011;4604;48.616;9.548;2023-04-03T10:35:01;4.20;;;2.70;;
9138;SDS011;4604;48.616;9.548;2023-04-03T10:37:35;3.23;;;2.77;;
9138;SDS011;4604;48.616;9.548;2023-04-03T10:40:21;3.70;;;2.90;;
9138;SDS011;4604;48.616;9.548;2023-04-03T10:42:58;3.07;;;2.60;;
9138;SDS011;4604;48.616;9.548;2023-04-03T10:45:41;4.13;;;3.20;;
9138;SDS011;4604;48.616;9.548;2023-04-03T10:48:27;4.27;;;2.63;;
9138;SDS011;4604;48.616;9.548;2023-04-03T10:51:05;4.00;;;2.87;;
9138;SDS011;4604;48.616;9.548;2023-04-03T10:53:44;5.53;;;2.80;;
9138;SDS011;4604;48.616;9.548;2023-04-03T10:56:18;4.60;;;3.27;;
9138;SDS011;4604;48.616;9.548;2023-04-03T10:58:48;3.87;;;2.87;;
9138;SDS011;4604;48.616;9.548;2023-04-03T11:01:22;2.97;;;2.50;;
9138;SDS011;4604;48.616;9.548;2023-04-03T11:03:58;3.73;;;2.77;;
9138;SDS011;4604;48.616;9.548;2023-04-03T11:06:27;5.13;;;2.80;;
9138;SDS011;4604;48.616;9.548;2023-04-03T11:09:02;4.20;;;2.57;;
9138;SDS011;4604;48.616;9.548;2023-04-03T11:11:34;4.70;;;2.70;;
9138;SDS011;4604;48.616;9.548;2023-04-03T11:14:05;3.70;;;2.63;;
9138;SDS011;4604;48.616;9.548;2023-04-03T11:16:42;3.87;;;2.70;;
9138;SDS011;4604;48.616;9.548;2023-04-03T11:19:14;4.40;;;2.70;;
9138;SDS011;4604;48.616;9.548;2023-04-03T11:21:50;4.00;;;2.50;;
9138;SDS011;4604;48.616;9.548;2023-04-03T11:24:24;3.23;;;2.47;;
9138;SDS011;4604;48.616;9.548;2023-04-03T11:26:55;5.47;;;2.40;;
9138;SDS011;4604;48.616;9.548;2023-04-03T11:29:24;3.93;;;2.47;;
9138;SDS011;4604;48.616;9.548;2023-04-03T11:32:09;2.70;;;2.40;;
9138;SDS011;4604;48.616;9.548;2023-04-03T11:34:51;3.77;;;2.33;;
9138;SDS011;4604;48.616;9.548;2023-04-03T11:37:25;5.40;;;2.63;;
9138;SDS011;4604;48.616;9.548;2023-04-03T11:40:00;3.07;;;2.60;;
9138;SDS011;4604;48.616;9.548;2023-04-03T11:42:32;4.43;;;2.60;;
9138;SDS011;4604;48.616;9.548;2023-04-03T11:45:23;4.20;;;2.70;;
9138;SDS011;4604;48.616;9.548;2023-04-03T11:47:57;2.60;;;2.40;;
9138;SDS011;4604;48.616;9.548;2023-04-03T11:50:39;4.80;;;2.57;;
9138;SDS011;4604;48.616;9.548;2023-04-03T11:53:25;4.20;;;2.47;;
9138;SDS011;4604;48.616;9.548;2023-04-03T11:55:55;4.47;;;2.60;;
9138;SDS011;4604;48.616;9.548;2023-04-03T11:58:26;8.90;;;2.50;;
9138;SDS011;4604;48.616;9.548;2023-04-03T12:00:55;3.53;;;2.43;;
9138;SDS011;4604;48.616;9.548;2023-04-03T12:03:30;2.50;;;2.30;;
9138;SDS011;4604;48.616;9.548;2023-04-03T12:09:27;2.87;;;2.27;;
9138;SDS011;4604;48.616;9.548;2023-04-03T12:12:27;2.40;;;2.07;;
9138;SDS011;4604;48.616;9.548;2023-04-03T12:14:54;3.47;;;2.10;;
9138;SDS011;4604;48.616;9.548;2023-04-03T12:17:22;3.87;;;2.10;;
9138;SDS011;4604;48.616;9.548;2023-04-03T12:19:54;3.53;;;2.40;;
9138;SDS011;4604;48.616;9.548;2023-04-03T12:22:20;2.67;;;2.33;;
9138;SDS011;4604;48.616;9.548;2023-04-03T12:24:49;2.80;;;2.37;;
9138;SDS011;4604;48.616;9.548;2023-04-03T12:27:21;3.63;;;2.20;;
9138;SDS011;4604;48.616;9.548;2023-04-03T12:29:52;3.80;;;2.30;;
9138;SDS011;4604;48.616;9.548;2023-04-03T12:32:26;3.63;;;2.20;;
9138;SDS011;4604;48.616;9.548;2023-04-03T12:35:14;3.07;;;2.30;;
9138;SDS011;4604;48.616;9.548;2023-04-03T12:40:51;2.60;;;2.40;;
9138;SDS011;4604;48.616;9.548;2023-04-03T12:43:34;4.17;;;2.50;;
9138;SDS011;4604;48.616;9.548;2023-04-03T12:46:11;3.93;;;2.70;;
9138;SDS011;4604;48.616;9.548;2023-04-03T12:48:46;4.83;;;2.67;;
9138;SDS011;4604;48.616;9.548;2023-04-03T12:51:17;3.47;;;2.27;;
9138;SDS011;4604;48.616;9.548;2023-04-03T12:53:48;4.87;;;2.77;;
9138;SDS011;4604;48.616;9.548;2023-04-03T12:56:24;6.00;;;2.60;;
9138;SDS011;4604;48.616;9.548;2023-04-03T12:58:53;3.27;;;2.50;;
9138;SDS011;4604;48.616;9.548;2023-04-03T13:01:23;3.40;;;2.80;;
9138;SDS011;4604;48.616;9.548;2023-04-03T13:03:52;5.20;;;2.37;;
9138;SDS011;4604;48.616;9.548;2023-04-03T13:06:21;2.90;;;2.57;;
9138;SDS011;4604;48.616;9.548;2023-04-03T13:08:51;6.00;;;2.63;;
9138;SDS011;4604;48.616;9.548;2023-04-03T13:11:19;3.67;;;2.90;;
9138;SDS011;4604;48.616;9.548;2023-04-03T13:13:55;3.97;;;2.80;;
9138;SDS011;4604;48.616;9.548;2023-04-03T13:16:24;3.03;;;2.33;;
9138;SDS011;4604;48.616;9.548;2023-04-03T13:18:52;2.93;;;2.50;;
9138;SDS011;4604;48.616;9.548;2023-04-03T13:21:19;4.17;;;2.73;;
9138;SDS011;4604;48.616;9.548;2023-04-03T13:23:50;3.47;;;2.03;;
9138;SDS011;4604;48.616;9.548;2023-04-03T13:26:21;2.50;;;2.30;;
9138;SDS011;4604;48.616;9.548;2023-04-03T13:28:51;4.57;;;2.80;;
9138;SDS011;4604;48.616;9.548;2023-04-03T13:31:21;4.77;;;2.37;;
9138;SDS011;4604;48.616;9.548;2023-04-03T13:33:54;3.67;;;2.70;;
9138;SDS011;4604;48.616;9.548;2023-04-03T13:36:24;3.53;;;2.37;;
9138;SDS011;4604;48.616;9.548;2023-04-03T13:39:06;3.30;;;2.47;;
9138;SDS011;4604;48.616;9.548;2023-04-03T13:41:47;5.87;;;2.70;;
9138;SDS011;4604;48.616;9.548;2023-04-03T13:44:16;3.70;;;2.60;;
9138;SDS011;4604;48.616;9.548;2023-04-03T13:46:54;4.57;;;2.87;;
9138;SDS011;4604;48.616;9.548;2023-04-03T13:49:29;3.60;;;2.63;;
9138;SDS011;4604;48.616;9.548;2023-04-03T13:51:59;3.20;;;2.67;;
9138;SDS011;4604;48.616;9.548;2023-04-03T13:54:29;3.50;;;2.53;;
9138;SDS011;4604;48.616;9.548;2023-04-03T13:56:58;3.33;;;2.40;;
9138;SDS011;4604;48.616;9.548;2023-04-03T13:59:27;2.87;;;2.50;;
9138;SDS011;4604;48.616;9.548;2023-04-03T14:02:09;2.60;;;2.40;;
9138;SDS011;4604;48.616;9.548;2023-04-03T14:04:52;3.60;;;2.53;;
9138;SDS011;4604;48.616;9.548;2023-04-03T14:07:23;4.30;;;2.63;;
9138;SDS011;4604;48.616;9.548;2023-04-03T14:09:51;4.07;;;2.80;;
9138;SDS011;4604;48.616;9.548;2023-04-03T14:12:24;2.90;;;2.40;;
9138;SDS011;4604;48.616;9.548;2023-04-03T14:14:53;3.50;;;2.63;;
9138;SDS011;4604;48.616;9.548;2023-04-03T14:17:23;4.60;;;2.30;;
9138;SDS011;4604;48.616;9.548;2023-04-03T14:19:53;3.13;;;2.60;;
9138;SDS011;4604;48.616;9.548;2023-04-03T14:22:22;5.33;;;2.60;;
9138;SDS011;4604;48.616;9.548;2023-04-03T14:24:50;3.07;;;2.50;;
9138;SDS011;4604;48.616;9.548;2023-04-03T14:27:18;4.13;;;2.60;;
9138;SDS011;4604;48.616;9.548;2023-04-03T14:29:46;2.93;;;2.43;;
9138;SDS011;4604;48.616;9.548;2023-04-03T14:32:16;3.27;;;2.60;;
9138;SDS011;4604;48.616;9.548;2023-04-03T14:34:45;3.93;;;2.77;;
9138;SDS011;4604;48.616;9.548;2023-04-03T14:37:14;2.67;;;2.40;;
9138;SDS011;4604;48.616;9.548;2023-04-03T14:39:44;3.77;;;2.80;;
9138;SDS011;4604;48.616;9.548;2023-04-03T14:42:17;3.57;;;2.57;;
9138;SDS011;4604;48.616;9.548;2023-04-03T14:44:45;4.00;;;2.70;;
9138;SDS011;4604;48.616;9.548;2023-04-03T14:47:12;4.70;;;2.50;;
9138;SDS011;4604;48.616;9.548;2023-04-03T14:49:40;6.00;;;2.73;;
9138;SDS011;4604;48.616;9.548;2023-04-03T14:52:11;4.17;;;2.50;;
9138;SDS011;4604;48.616;9.548;2023-04-03T14:54:44;5.97;;;3.23;;
9138;SDS011;4604;48.616;9.548;2023-04-03T14:57:11;3.33;;;2.70;;
9138;SDS011;4604;48.616;9.548;2023-04-03T14:59:40;3.33;;;2.50;;
9138;SDS011;4604;48.616;9.548;2023-04-03T15:02:11;3.10;;;2.70;;
9138;SDS011;4604;48.616;9.548;2023-04-03T15:04:52;4.93;;;2.90;;
9138;SDS011;4604;48.616;9.548;2023-04-03T15:07:20;3.50;;;2.50;;
9138;SDS011;4604;48.616;9.548;2023-04-03T15:09:47;3.23;;;2.60;;
9138;SDS011;4604;48.616;9.548;2023-04-03T15:12:14;4.53;;;2.80;;
9138;SDS011;4604;48.616;9.548;2023-04-03T15:14:41;3.70;;;2.67;;
9138;SDS011;4604;48.616;9.548;2023-04-03T15:17:08;4.07;;;2.63;;
9138;SDS011;4604;48.616;9.548;2023-04-03T15:19:42;4.80;;;2.50;;
9138;SDS011;4604;48.616;9.548;2023-04-03T15:22:12;3.03;;;2.43;;
9138;SDS011;4604;48.616;9.548;2023-04-03T15:24:41;3.43;;;2.47;;
9138;SDS011;4604;48.616;9.548;2023-04-03T15:27:08;3.03;;;2.40;;
9138;SDS011;4604;48.616;9.548;2023-04-03T15:29:36;2.83;;;2.23;;
9138;SDS011;4604;48.616;9.548;2023-04-03T15:32:03;2.80;;;2.50;;
9138;SDS011;4604;48.616;9.548;2023-04-03T15:34:30;3.57;;;2.30;;
9138;SDS011;4604;48.616;9.548;2023-04-03T15:36:57;2.93;;;2.33;;
9138;SDS011;4604;48.616;9.548;2023-04-03T15:39:24;7.07;;;2.40;;
9138;SDS011;4604;48.616;9.548;2023-04-03T15:41:53;3.27;;;2.40;;